Meriden, KS

4:23 PM CST on December 25, 2014 (GMT -0600)
Lawrence Municipal | Change Station
CLOSE
Current Station
Airport
Location: Lawrence,
Elevation: 830 ft
Nearby Weather Stations

Elev 830 ft 39.01 °N, 95.21 °W | Updated 31 minutes ago

Partly Cloudy
Partly Cloudy
52 °F
Feels Like 52 °F
N
18
Wind Variable Wind from South
Gusts 24 mph

Today
High -- | Low -- °F
--% Chance of Precip.
Yesterday
High -- | Low -- °F
Precip. -- in
7:39 AM 5:05 PM
Waxing Crescent, 19% visible
Pressure 29.69 in
Visibility 10.0 miles
Clouds Clear
Dew Point 29 °F
Humidity 41%
Rainfall 0.00 in
Snow Depth Not available.
UV 1 out of 12
Pollen .10 out of 12
Air Quality Not available.
Flu Activity Not available.
METAR KLWC 252152Z AUTO 18016G21KT 10SM CLR 11/M02 A2968 RMK AO2 PK WND 17033/2110 SLP052 T01111017

More Conditions Fewer Conditions

Pressure 29.69 in
Visibility 10.0 miles
Clouds Clear
Dew Point 29 °F
Humidity 41%
Rainfall 0.00 in
Snow Depth Not available.
UV 1 out of 12
Pollen .10 out of 12
Air Quality Not available.
Flu Activity Not available.
METAR KLWC 252152Z AUTO 18016G21KT 10SM CLR 11/M02 A2968 RMK AO2 PK WND 17033/2110 SLP052 T01111017

More Conditions Fewer Conditions

10-Day Weather Forecast

Almanac

Astronomy

Dec. 25, 2014 Rise Set
Actual Time
Civil Twilight
Nautical Twilight
Astronomical Twilight
Moon
Length of Visible Light
Length of Day
Tomorrow will be .
, % of the Moon is Illuminated

Today's Extremes

State Highs State Lows

Community

WunderPhotos

Upload Photos

1,780,427 photos uploaded!

WunderBlogs® & News

Nearby

Air Quality

  Air Quality AQ Index Pollutant
Not available.

Snow Depth

Station Depth Elevation

Earthquake Activity

City Distance Mag. Time & Date
Minimum magnitude displayed is 2.5.

Coastal Water Temperatures

Place Temperature

Nearby Weather Stations